createdAt,value
2023-12-16T00:00:41.821Z,3.22
2023-12-16T00:03:08.650Z,3.38
2023-12-16T00:05:35.316Z,3.53
2023-12-16T00:08:02.056Z,4.93
2023-12-16T00:10:28.744Z,3.85
2023-12-16T00:12:55.942Z,4.35
2023-12-16T00:15:22.782Z,3.53
2023-12-16T00:17:49.503Z,3.60
2023-12-16T00:20:16.196Z,3.38
2023-12-16T00:22:43.188Z,5.15
2023-12-16T00:25:10.492Z,3.13
2023-12-16T00:27:37.419Z,3.95
2023-12-16T00:30:06.548Z,2.58
2023-12-16T00:32:33.351Z,2.80
2023-12-16T00:34:59.939Z,2.75
2023-12-16T00:37:26.660Z,3.78
2023-12-16T00:39:53.301Z,3.20
2023-12-16T00:42:20.119Z,3.47
2023-12-16T00:44:46.811Z,2.25
2023-12-16T00:47:13.386Z,3.22
2023-12-16T00:49:39.975Z,2.45
2023-12-16T00:52:06.628Z,2.28
2023-12-16T00:54:33.189Z,4.18
2023-12-16T00:56:59.870Z,3.90
2023-12-16T00:59:27.430Z,3.42
2023-12-16T01:01:54.630Z,3.40
2023-12-16T01:04:21.340Z,2.60
2023-12-16T01:06:48.088Z,2.75
2023-12-16T01:09:14.692Z,3.50
2023-12-16T01:11:42.490Z,2.95
2023-12-16T01:14:09.797Z,2.55
2023-12-16T01:16:36.504Z,3.33
2023-12-16T01:19:03.334Z,3.13
2023-12-16T01:21:30.011Z,3.80
2023-12-16T01:23:56.631Z,2.58
2023-12-16T01:26:23.189Z,4.03
2023-12-16T01:28:49.787Z,3.88
2023-12-16T01:31:16.629Z,2.58
2023-12-16T01:33:43.291Z,2.85
2023-12-16T01:36:09.930Z,2.50
2023-12-16T01:38:36.485Z,2.35
2023-12-16T01:41:03.175Z,2.92
2023-12-16T01:43:29.823Z,3.40
2023-12-16T01:46:03.010Z,2.13
2023-12-16T01:48:31.530Z,3.05
2023-12-16T01:50:58.625Z,2.00
2023-12-16T01:53:28.170Z,2.28
2023-12-16T01:55:55.414Z,2.65
2023-12-16T01:58:23.777Z,2.47
2023-12-16T02:00:53.799Z,4.38
2023-12-16T02:03:21.566Z,2.97
2023-12-16T02:05:48.300Z,2.88
2023-12-16T02:08:15.255Z,2.88
2023-12-16T02:10:41.855Z,3.10
2023-12-16T02:13:08.548Z,2.38
2023-12-16T02:15:35.119Z,2.90
2023-12-16T02:18:01.738Z,2.78
2023-12-16T02:20:28.692Z,3.20
2023-12-16T02:22:55.291Z,2.60
2023-12-16T02:25:21.926Z,3.22
2023-12-16T02:27:48.855Z,2.85
2023-12-16T02:30:15.750Z,3.55
2023-12-16T02:32:42.746Z,2.30
2023-12-16T02:35:09.465Z,2.42
2023-12-16T02:37:36.116Z,3.33
2023-12-16T02:40:03.028Z,3.17
2023-12-16T02:42:29.759Z,3.28
2023-12-16T02:44:56.488Z,3.42
2023-12-16T02:47:23.082Z,2.70
2023-12-16T02:49:49.746Z,2.60
2023-12-16T02:52:16.264Z,2.17
2023-12-16T02:54:42.878Z,2.50
2023-12-16T02:57:09.416Z,2.33
2023-12-16T02:59:36.063Z,2.08
2023-12-16T03:02:02.793Z,2.17
2023-12-16T03:04:29.427Z,2.40
2023-12-16T03:06:56.260Z,2.67
2023-12-16T03:09:22.953Z,1.55
2023-12-16T03:11:51.025Z,1.75
2023-12-16T03:14:17.999Z,2.15
2023-12-16T03:16:44.982Z,2.20
2023-12-16T03:19:11.705Z,2.00
2023-12-16T03:21:38.681Z,1.80
2023-12-16T03:24:05.714Z,2.53
2023-12-16T03:26:32.259Z,1.52
2023-12-16T03:28:58.869Z,1.95
2023-12-16T03:31:25.629Z,2.35
2023-12-16T03:33:54.404Z,2.95
2023-12-16T03:36:21.307Z,1.88
2023-12-16T03:38:47.884Z,1.58
2023-12-16T03:41:14.566Z,1.75
2023-12-16T03:43:41.220Z,2.08
2023-12-16T03:46:09.228Z,1.85
2023-12-16T03:48:37.003Z,1.27
2023-12-16T03:51:03.900Z,1.48
2023-12-16T03:53:30.912Z,2.33
2023-12-16T03:55:57.433Z,3.55
2023-12-16T03:58:24.178Z,2.70
2023-12-16T04:00:51.212Z,2.75
2023-12-16T04:03:17.963Z,2.00
2023-12-16T04:05:44.723Z,1.83
2023-12-16T04:08:11.463Z,2.33
2023-12-16T04:10:38.042Z,1.63
2023-12-16T04:13:04.757Z,1.50
2023-12-16T04:15:31.336Z,2.45
2023-12-16T04:17:57.966Z,2.00
2023-12-16T04:20:24.555Z,2.25
2023-12-16T04:22:51.293Z,2.85
2023-12-16T04:25:17.881Z,1.13
2023-12-16T04:27:44.448Z,1.58
2023-12-16T04:30:12.107Z,2.15
2023-12-16T04:32:38.841Z,1.67
2023-12-16T04:35:06.143Z,1.58
2023-12-16T04:37:32.697Z,2.00
2023-12-16T04:39:59.362Z,2.67
2023-12-16T04:42:25.917Z,1.90
2023-12-16T04:44:52.451Z,2.35
2023-12-16T04:47:19.037Z,2.20
2023-12-16T04:49:45.663Z,1.98
2023-12-16T04:52:12.282Z,2.05
2023-12-16T04:54:38.942Z,1.77
2023-12-16T04:57:05.897Z,2.08
2023-12-16T04:59:32.560Z,1.40
2023-12-16T05:01:59.808Z,2.67
2023-12-16T05:04:26.659Z,1.67
2023-12-16T05:06:55.434Z,1.33
2023-12-16T05:09:22.217Z,1.80
2023-12-16T05:11:48.829Z,1.85
2023-12-16T05:14:15.551Z,1.73
2023-12-16T05:16:42.095Z,2.40
2023-12-16T05:19:08.933Z,1.75
2023-12-16T05:21:35.701Z,2.03
2023-12-16T05:24:02.481Z,2.30
2023-12-16T05:26:29.151Z,1.17
2023-12-16T05:28:55.784Z,1.75
2023-12-16T05:31:22.329Z,1.40
2023-12-16T05:33:50.170Z,2.20
2023-12-16T05:36:17.183Z,2.38
2023-12-16T05:38:43.838Z,1.83
2023-12-16T05:41:13.874Z,2.33
2023-12-16T05:43:40.474Z,2.45
2023-12-16T05:46:07.134Z,1.85
2023-12-16T05:48:36.504Z,2.17
2023-12-16T05:51:04.978Z,2.35
2023-12-16T05:55:59.277Z,1.30
2023-12-16T05:58:25.897Z,0.75
2023-12-16T06:00:52.626Z,2.17
2023-12-16T06:03:19.322Z,2.28
2023-12-16T06:05:46.195Z,2.05
2023-12-16T06:08:12.722Z,2.17
2023-12-16T06:10:39.336Z,1.55
2023-12-16T06:13:05.983Z,1.67
2023-12-16T06:15:32.487Z,1.35
2023-12-16T06:18:03.984Z,2.05
2023-12-16T06:20:31.569Z,1.75
2023-12-16T06:22:58.096Z,3.22
2023-12-16T06:25:24.796Z,2.80
2023-12-16T06:27:51.493Z,1.73
2023-12-16T06:30:18.195Z,1.67
2023-12-16T06:32:44.774Z,1.27
2023-12-16T06:35:11.386Z,1.25
2023-12-16T06:37:38.712Z,2.13
2023-12-16T06:40:06.374Z,1.40
2023-12-16T06:42:32.996Z,1.60
2023-12-16T06:44:59.646Z,1.10
2023-12-16T06:47:26.450Z,1.60
2023-12-16T06:49:54.387Z,1.45
2023-12-16T06:52:21.167Z,2.22
2023-12-16T06:54:47.766Z,1.65
2023-12-16T06:57:14.400Z,2.00
2023-12-16T06:59:40.915Z,1.40
2023-12-16T07:02:07.534Z,1.58
2023-12-16T07:04:34.208Z,1.88
2023-12-16T07:07:00.882Z,1.80
2023-12-16T07:09:27.522Z,0.75
2023-12-16T07:11:54.131Z,1.60
2023-12-16T07:14:20.754Z,1.90
2023-12-16T07:16:47.327Z,2.22
2023-12-16T07:19:15.367Z,2.15
2023-12-16T07:21:42.962Z,1.50
2023-12-16T07:24:09.697Z,2.05
2023-12-16T07:26:36.257Z,2.97
2023-12-16T07:29:03.481Z,0.82
2023-12-16T07:31:30.396Z,2.78
2023-12-16T07:33:57.921Z,2.60
2023-12-16T07:36:24.610Z,1.75
2023-12-16T07:38:51.189Z,2.50
2023-12-16T07:41:17.739Z,2.05
2023-12-16T07:43:44.331Z,2.22
2023-12-16T07:46:10.957Z,2.90
2023-12-16T07:48:37.703Z,2.63
2023-12-16T07:51:04.439Z,2.00
2023-12-16T07:53:31.050Z,2.13
2023-12-16T07:55:58.087Z,2.30
2023-12-16T07:58:24.717Z,2.20
2023-12-16T08:00:51.747Z,2.80
2023-12-16T08:03:18.522Z,3.17
2023-12-16T08:05:45.256Z,2.80
2023-12-16T08:08:11.832Z,2.75
2023-12-16T08:10:38.613Z,4.40
2023-12-16T08:13:06.542Z,3.63
2023-12-16T08:15:33.312Z,4.65
2023-12-16T08:17:59.879Z,3.00
2023-12-16T08:20:26.493Z,4.35
2023-12-16T08:22:53.114Z,4.93
2023-12-16T08:25:19.732Z,3.28
2023-12-16T08:27:46.299Z,3.92
2023-12-16T08:30:14.509Z,3.60
2023-12-16T08:32:41.273Z,3.90
2023-12-16T08:35:08.597Z,3.58
2023-12-16T08:37:35.346Z,4.22
2023-12-16T08:40:02.187Z,3.25
2023-12-16T08:42:28.932Z,3.80
2023-12-16T08:44:55.527Z,4.10
2023-12-16T08:47:22.083Z,4.07
2023-12-16T08:49:48.828Z,4.15
2023-12-16T08:52:15.840Z,3.85
2023-12-16T08:54:42.587Z,3.88
2023-12-16T08:57:09.408Z,4.50
2023-12-16T08:59:36.471Z,3.97
2023-12-16T09:02:04.145Z,4.63
2023-12-16T09:04:30.839Z,4.13
2023-12-16T09:06:58.157Z,4.80
2023-12-16T09:09:24.852Z,4.15
2023-12-16T09:11:51.469Z,3.72
2023-12-16T09:14:18.037Z,4.38
2023-12-16T09:16:44.593Z,4.80
2023-12-16T09:19:13.191Z,4.82
2023-12-16T09:21:39.916Z,4.65
2023-12-16T09:24:06.925Z,4.80
2023-12-16T09:26:33.717Z,5.05
2023-12-16T09:29:02.223Z,5.65
2023-12-16T09:31:29.306Z,5.80
2023-12-16T09:33:56.136Z,6.60
2023-12-16T09:36:28.222Z,7.45
2023-12-16T09:39:01.316Z,6.05
2023-12-16T09:41:31.438Z,6.47
2023-12-16T09:44:00.271Z,7.30
2023-12-16T09:46:31.400Z,7.22
2023-12-16T09:49:00.199Z,7.28
2023-12-16T09:51:27.466Z,7.28
2023-12-16T09:53:55.233Z,7.65
2023-12-16T09:58:52.764Z,7.20
2023-12-16T10:01:19.912Z,6.90
2023-12-16T10:03:48.642Z,7.00
2023-12-16T10:06:18.708Z,6.97
2023-12-16T10:08:45.984Z,7.53
2023-12-16T10:11:14.560Z,7.35
2023-12-16T10:13:59.718Z,7.65
2023-12-16T10:16:26.830Z,7.00
2023-12-16T10:18:55.646Z,8.82
2023-12-16T10:21:32.340Z,8.55
2023-12-16T10:24:01.375Z,8.20
2023-12-16T10:26:35.229Z,9.25
2023-12-16T10:29:06.084Z,6.85
2023-12-16T10:31:34.870Z,8.52
2023-12-16T10:34:02.967Z,7.35
2023-12-16T10:36:31.030Z,7.00
2023-12-16T10:41:25.238Z,8.25
2023-12-16T10:43:54.324Z,7.07
2023-12-16T10:46:22.968Z,6.80
2023-12-16T10:48:52.330Z,7.97
2023-12-16T10:51:20.133Z,6.90
2023-12-16T10:53:58.007Z,6.20
2023-12-16T10:56:30.657Z,7.53
2023-12-16T10:59:00.406Z,6.28
2023-12-16T11:01:32.595Z,6.60
2023-12-16T11:04:08.530Z,7.05
2023-12-16T11:06:44.048Z,6.32
2023-12-16T11:09:12.758Z,7.00
2023-12-16T11:11:42.263Z,6.30
2023-12-16T11:14:10.130Z,6.10
2023-12-16T11:19:26.720Z,4.75
2023-12-16T11:21:53.492Z,5.82
2023-12-16T11:24:20.348Z,6.25
2023-12-16T11:26:56.712Z,6.10
2023-12-16T11:29:24.656Z,5.22
2023-12-16T11:34:40.208Z,5.15
2023-12-16T11:37:07.022Z,7.10
2023-12-16T11:39:38.256Z,6.88
2023-12-16T11:42:06.246Z,6.30
2023-12-16T11:44:52.897Z,6.00
2023-12-16T11:47:21.583Z,5.13
2023-12-16T11:49:49.548Z,5.07
2023-12-16T11:54:45.062Z,4.65
2023-12-16T11:57:11.849Z,5.97
2023-12-16T11:59:38.700Z,5.07
2023-12-16T12:02:06.786Z,5.18
2023-12-16T12:04:33.799Z,5.03
2023-12-16T12:07:00.566Z,5.85
2023-12-16T12:09:27.539Z,6.25
2023-12-16T12:11:54.244Z,5.30
2023-12-16T12:14:20.767Z,5.05
2023-12-16T12:16:47.343Z,5.50
2023-12-16T12:19:14.203Z,6.00
2023-12-16T12:21:42.029Z,6.90
2023-12-16T12:24:08.856Z,5.80
2023-12-16T12:26:36.145Z,6.07
2023-12-16T12:29:06.339Z,6.00
2023-12-16T12:31:43.310Z,6.75
2023-12-16T12:34:19.306Z,6.82
2023-12-16T12:36:47.035Z,5.78
2023-12-16T12:39:18.448Z,7.22
2023-12-16T12:41:45.194Z,6.72
2023-12-16T12:44:13.033Z,6.28
2023-12-16T12:46:47.469Z,6.07
2023-12-16T12:49:14.510Z,7.35
2023-12-16T12:51:51.624Z,8.43
2023-12-16T12:54:19.856Z,6.38
2023-12-16T12:56:46.546Z,6.35
2023-12-16T12:59:57.576Z,6.40
2023-12-16T13:01:59.761Z,6.75
2023-12-16T13:04:26.284Z,7.07
2023-12-16T13:06:52.931Z,7.38
2023-12-16T13:09:19.721Z,7.47
2023-12-16T13:11:46.273Z,7.13
2023-12-16T13:14:17.704Z,7.18
2023-12-16T13:16:46.748Z,7.15
2023-12-16T13:19:13.451Z,6.47
2023-12-16T13:21:41.772Z,7.18
2023-12-16T13:24:08.553Z,6.13
2023-12-16T13:26:35.213Z,7.63
2023-12-16T13:29:02.024Z,7.28
2023-12-16T13:31:28.603Z,6.78
2023-12-16T13:33:55.864Z,6.75
2023-12-16T13:36:34.155Z,6.20
2023-12-16T13:39:10.265Z,7.75
2023-12-16T13:41:36.923Z,7.25
2023-12-16T13:44:03.716Z,7.63
2023-12-16T13:46:31.091Z,7.43
2023-12-16T13:48:58.365Z,7.32
2023-12-16T13:51:26.817Z,7.40
2023-12-16T13:53:53.531Z,6.93
2023-12-16T13:56:20.091Z,7.10
2023-12-16T13:58:46.623Z,6.68
2023-12-16T14:01:13.223Z,6.25
2023-12-16T14:03:40.184Z,6.30
2023-12-16T14:06:07.567Z,6.07
2023-12-16T14:08:34.304Z,7.43
2023-12-16T14:11:00.888Z,6.35
2023-12-16T14:13:27.611Z,6.20
2023-12-16T14:15:54.204Z,7.70
2023-12-16T14:18:20.875Z,7.32
2023-12-16T14:20:47.570Z,7.65
2023-12-16T14:23:14.438Z,6.70
2023-12-16T14:25:41.211Z,7.05
2023-12-16T14:28:07.843Z,6.18
2023-12-16T14:30:34.535Z,7.13
2023-12-16T14:33:01.420Z,7.20
2023-12-16T14:35:28.170Z,6.60
2023-12-16T14:37:54.959Z,7.35
2023-12-16T14:40:21.614Z,6.95
2023-12-16T14:42:48.151Z,7.28
2023-12-16T14:45:15.174Z,6.95
2023-12-16T14:47:41.953Z,7.13
2023-12-16T14:50:09.236Z,7.00
2023-12-16T14:52:35.970Z,6.95
2023-12-16T14:55:04.785Z,6.63
2023-12-16T14:57:33.919Z,6.68
2023-12-16T15:00:00.586Z,6.57
2023-12-16T15:02:27.132Z,7.95
2023-12-16T15:04:53.783Z,7.72
2023-12-16T15:07:23.528Z,6.72
2023-12-16T15:09:50.251Z,7.38
2023-12-16T15:12:18.229Z,6.50
2023-12-16T15:14:44.882Z,7.38
2023-12-16T15:17:12.067Z,7.57
2023-12-16T15:19:38.980Z,6.90
2023-12-16T15:22:05.895Z,7.68
2023-12-16T15:24:32.452Z,6.90
2023-12-16T15:26:59.200Z,7.47
2023-12-16T15:29:25.737Z,8.02
2023-12-16T15:31:56.228Z,8.82
2023-12-16T15:34:24.377Z,7.07
2023-12-16T15:36:56.891Z,6.28
2023-12-16T15:39:27.065Z,7.20
2023-12-16T15:41:53.758Z,7.22
2023-12-16T15:44:20.441Z,6.20
2023-12-16T15:46:47.031Z,6.55
2023-12-16T15:49:19.051Z,7.20
2023-12-16T15:51:45.976Z,6.50
2023-12-16T15:54:12.610Z,6.88
2023-12-16T15:56:44.146Z,7.60
2023-12-16T15:59:11.228Z,5.93
2023-12-16T16:01:38.642Z,7.93
2023-12-16T16:04:06.322Z,6.78
2023-12-16T16:06:34.178Z,6.75
2023-12-16T16:09:01.682Z,7.05
2023-12-16T16:11:29.021Z,7.82
2023-12-16T16:13:55.602Z,9.73
2023-12-16T16:16:22.705Z,9.23
2023-12-16T16:18:50.327Z,8.88
2023-12-16T16:21:17.516Z,9.73
2023-12-16T16:23:44.555Z,10.27
2023-12-16T16:26:11.358Z,10.05
2023-12-16T16:28:37.990Z,9.40
2023-12-16T16:31:07.479Z,10.55
2023-12-16T16:33:34.512Z,8.23
2023-12-16T16:36:02.420Z,9.73
2023-12-16T16:38:30.147Z,9.10
2023-12-16T16:40:56.752Z,9.52
2023-12-16T16:43:23.330Z,10.35
2023-12-16T16:45:49.952Z,11.07
2023-12-16T16:48:16.648Z,9.50
2023-12-16T16:50:49.152Z,10.73
2023-12-16T16:53:17.451Z,9.15
2023-12-16T16:58:12.057Z,9.85
2023-12-16T17:00:40.198Z,10.20
2023-12-16T17:03:07.016Z,11.55
2023-12-16T17:05:33.911Z,10.63
2023-12-16T17:08:00.882Z,11.15
2023-12-16T17:10:27.520Z,10.88
2023-12-16T17:12:54.115Z,12.52
2023-12-16T17:15:20.791Z,10.27
2023-12-16T17:17:47.469Z,9.33
2023-12-16T17:20:14.226Z,9.25
2023-12-16T17:22:41.284Z,8.82
2023-12-16T17:25:09.275Z,10.52
2023-12-16T17:27:35.946Z,9.38
2023-12-16T17:30:03.015Z,8.45
2023-12-16T17:32:29.834Z,8.80
2023-12-16T17:34:57.765Z,9.85
2023-12-16T17:37:24.497Z,9.95
2023-12-16T17:39:51.086Z,9.52
2023-12-16T17:42:18.687Z,8.57
2023-12-16T17:44:45.229Z,9.52
2023-12-16T17:47:13.079Z,8.02
2023-12-16T17:49:39.642Z,10.13
2023-12-16T17:52:06.196Z,9.90
2023-12-16T17:54:32.820Z,9.25
2023-12-16T17:56:59.794Z,9.02
2023-12-16T17:59:26.534Z,11.38
2023-12-16T18:01:53.145Z,9.48
2023-12-16T18:04:19.947Z,9.60
2023-12-16T18:06:52.471Z,11.38
2023-12-16T18:09:20.278Z,9.75
2023-12-16T18:11:47.883Z,9.85
2023-12-16T18:14:14.942Z,9.57
2023-12-16T18:16:41.598Z,8.48
2023-12-16T18:19:08.408Z,9.20
2023-12-16T18:21:35.182Z,10.05
2023-12-16T18:24:02.180Z,9.60
2023-12-16T18:26:29.002Z,9.15
2023-12-16T18:28:56.655Z,10.80
2023-12-16T18:31:23.486Z,10.63
2023-12-16T18:33:50.117Z,11.30
2023-12-16T18:36:16.794Z,10.73
2023-12-16T18:38:45.272Z,12.60
2023-12-16T18:41:12.863Z,11.18
2023-12-16T18:43:44.299Z,9.45
2023-12-16T18:46:11.356Z,9.38
2023-12-16T18:48:38.203Z,9.52
2023-12-16T18:51:05.021Z,8.73
2023-12-16T18:53:31.676Z,8.25
2023-12-16T18:56:01.602Z,7.57
2023-12-16T18:58:28.342Z,8.70
2023-12-16T19:00:54.915Z,7.72
2023-12-16T19:03:21.552Z,7.32
2023-12-16T19:05:48.224Z,8.77
2023-12-16T19:08:14.915Z,6.70
2023-12-16T19:10:41.753Z,8.93
2023-12-16T19:13:08.739Z,9.15
2023-12-16T19:15:35.903Z,8.88
2023-12-16T19:18:02.602Z,10.63
2023-12-16T19:20:29.241Z,9.40
2023-12-16T19:22:55.947Z,8.95
2023-12-16T19:25:22.475Z,6.63
2023-12-16T19:27:49.043Z,6.93
2023-12-16T19:30:15.678Z,8.65
2023-12-16T19:32:42.412Z,7.10
2023-12-16T19:35:09.178Z,7.55
2023-12-16T19:37:35.704Z,8.57
2023-12-16T19:40:03.965Z,7.15
2023-12-16T19:42:30.620Z,6.65
2023-12-16T19:44:57.255Z,6.75
2023-12-16T19:47:25.937Z,5.00
2023-12-16T19:49:53.851Z,8.18
2023-12-16T19:52:20.649Z,6.00
2023-12-16T19:54:47.392Z,6.80
2023-12-16T19:57:14.983Z,6.63
2023-12-16T19:59:44.206Z,6.93
2023-12-16T20:02:11.674Z,7.07
2023-12-16T20:04:38.945Z,5.75
2023-12-16T20:07:05.566Z,6.55
2023-12-16T20:09:32.402Z,6.68
2023-12-16T20:11:58.995Z,6.85
2023-12-16T20:14:25.849Z,7.53
2023-12-16T20:16:52.463Z,9.43
2023-12-16T20:19:19.205Z,8.38
2023-12-16T20:21:45.966Z,7.97
2023-12-16T20:24:12.568Z,8.80
2023-12-16T20:26:39.197Z,8.07
2023-12-16T20:29:05.890Z,8.30
2023-12-16T20:31:33.834Z,7.90
2023-12-16T20:36:31.814Z,6.97
2023-12-16T20:39:17.616Z,9.63
2023-12-16T20:41:44.270Z,8.73
2023-12-16T20:44:10.908Z,9.27
2023-12-16T20:46:37.487Z,6.15
2023-12-16T20:49:04.315Z,7.03
2023-12-16T20:51:32.482Z,7.80
2023-12-16T20:53:59.047Z,8.48
2023-12-16T20:56:25.651Z,8.07
2023-12-16T20:58:52.233Z,6.57
2023-12-16T21:01:18.995Z,6.53
2023-12-16T21:03:46.142Z,6.38
2023-12-16T21:06:12.856Z,5.35
2023-12-16T21:08:39.552Z,5.68
2023-12-16T21:11:06.670Z,7.32
2023-12-16T21:13:33.191Z,6.82
2023-12-16T21:15:59.835Z,7.78
2023-12-16T21:18:26.920Z,8.82
2023-12-16T21:20:53.743Z,9.18
2023-12-16T21:23:20.563Z,8.38
2023-12-16T21:25:47.280Z,9.32
2023-12-16T21:28:14.994Z,10.13
2023-12-16T21:30:42.211Z,7.65
2023-12-16T21:33:08.967Z,9.60
2023-12-16T21:35:35.688Z,8.30
2023-12-16T21:38:03.224Z,8.25
2023-12-16T21:40:30.391Z,9.82
2023-12-16T21:42:57.948Z,10.88
2023-12-16T21:45:24.683Z,9.38
2023-12-16T21:47:51.611Z,8.15
2023-12-16T21:50:18.353Z,7.15
2023-12-16T21:52:44.987Z,6.88
2023-12-16T21:55:11.569Z,6.43
2023-12-16T21:57:38.602Z,6.40
2023-12-16T22:00:06.160Z,7.38
2023-12-16T22:02:32.891Z,8.13
2023-12-16T22:04:59.622Z,7.40
2023-12-16T22:07:26.315Z,8.35
2023-12-16T22:09:53.108Z,9.05
2023-12-16T22:12:19.972Z,8.30
2023-12-16T22:14:47.367Z,9.98
2023-12-16T22:17:14.071Z,8.77
2023-12-16T22:19:42.748Z,6.95
2023-12-16T22:22:09.662Z,6.40
2023-12-16T22:24:36.357Z,8.80
2023-12-16T22:27:03.230Z,9.98
2023-12-16T22:29:29.940Z,8.13
2023-12-16T22:31:56.498Z,7.68
2023-12-16T22:34:23.178Z,8.60
2023-12-16T22:36:49.803Z,8.15
2023-12-16T22:39:16.445Z,9.30
2023-12-16T22:41:43.084Z,7.38
2023-12-16T22:44:09.976Z,8.00
2023-12-16T22:46:38.347Z,6.80
2023-12-16T22:49:05.286Z,6.35
2023-12-16T22:51:32.690Z,6.97
2023-12-16T22:54:01.081Z,6.95
2023-12-16T22:56:28.237Z,7.95
2023-12-16T22:58:54.828Z,9.43
2023-12-16T23:01:21.585Z,6.80
2023-12-16T23:03:48.600Z,7.20
2023-12-16T23:06:15.539Z,7.20
2023-12-16T23:08:44.388Z,8.25
2023-12-16T23:11:11.325Z,8.25
2023-12-16T23:13:38.026Z,8.82
2023-12-16T23:16:05.583Z,7.45
2023-12-16T23:18:32.584Z,7.93
2023-12-16T23:21:00.500Z,8.98
2023-12-16T23:23:27.288Z,9.40
2023-12-16T23:25:54.506Z,8.52
2023-12-16T23:28:21.491Z,7.50
2023-12-16T23:30:57.259Z,8.07
2023-12-16T23:33:27.734Z,8.35
2023-12-16T23:35:54.882Z,9.02
2023-12-16T23:38:21.905Z,8.02
2023-12-16T23:40:50.854Z,8.15
2023-12-16T23:43:17.536Z,6.57
2023-12-16T23:45:44.150Z,10.88
2023-12-16T23:48:11.176Z,8.55
2023-12-16T23:50:37.824Z,6.88
2023-12-16T23:53:04.395Z,6.10
2023-12-16T23:55:31.254Z,7.18
2023-12-16T23:57:57.932Z,9.20
